createdAt,value
2023-03-12T00:02:19.175Z,66.10
2023-03-12T00:04:47.003Z,68.10
2023-03-12T00:07:14.608Z,60.50
2023-03-12T00:09:42.293Z,64.57
2023-03-12T00:12:10.630Z,70.00
2023-03-12T00:14:38.387Z,59.77
2023-03-12T00:17:06.103Z,65.80
2023-03-12T00:19:35.159Z,61.37
2023-03-12T00:22:02.813Z,52.93
2023-03-12T00:24:30.490Z,57.10
2023-03-12T00:26:58.142Z,58.40
2023-03-12T00:29:25.783Z,65.67
2023-03-12T00:31:54.165Z,57.23
2023-03-12T00:34:21.909Z,56.23
2023-03-12T00:36:51.048Z,53.53
2023-03-12T00:39:18.799Z,48.37
2023-03-12T00:41:46.421Z,53.93
2023-03-12T00:44:14.016Z,54.93
2023-03-12T00:46:41.661Z,51.80
2023-03-12T00:49:09.260Z,50.53
2023-03-12T00:51:37.124Z,53.90
2023-03-12T00:54:06.387Z,55.37
2023-03-12T00:56:34.032Z,48.77
2023-03-12T00:59:01.842Z,51.97
2023-03-12T01:01:29.553Z,48.07
2023-03-12T01:03:58.792Z,46.87
2023-03-12T01:06:26.502Z,45.27
2023-03-12T01:08:55.346Z,42.20
2023-03-12T01:11:24.378Z,43.80
2023-03-12T01:13:51.986Z,43.40
2023-03-12T01:16:19.999Z,44.67
2023-03-12T01:18:47.641Z,43.87
2023-03-12T01:21:15.294Z,43.03
2023-03-12T01:23:42.939Z,42.53
2023-03-12T01:26:10.780Z,42.63
2023-03-12T01:28:40.093Z,43.33
2023-03-12T01:31:08.823Z,42.57
2023-03-12T01:33:36.479Z,43.53
2023-03-12T01:36:04.283Z,45.87
2023-03-12T01:38:32.304Z,43.90
2023-03-12T01:40:59.931Z,43.40
2023-03-12T01:43:31.192Z,43.97
2023-03-12T01:46:30.571Z,42.23
2023-03-12T01:49:03.079Z,41.83
2023-03-12T01:51:34.347Z,38.10
2023-03-12T01:54:06.456Z,38.57
2023-03-12T01:56:36.457Z,38.47
2023-03-12T01:59:10.901Z,37.57
2023-03-12T02:01:41.471Z,37.60
2023-03-12T02:04:09.321Z,38.00
2023-03-12T02:06:44.167Z,39.43
2023-03-12T02:09:13.684Z,37.90
2023-03-12T02:11:41.395Z,36.40
2023-03-12T02:14:09.117Z,41.17
2023-03-12T02:16:36.828Z,38.03
2023-03-12T02:19:12.598Z,36.30
2023-03-12T02:21:40.731Z,34.13
2023-03-12T02:24:16.237Z,34.13
2023-03-12T02:26:45.360Z,33.70
2023-03-12T02:29:13.762Z,36.77
2023-03-12T02:31:45.359Z,38.97
2023-03-12T02:34:13.061Z,37.83
2023-03-12T02:36:41.073Z,37.03
2023-03-12T02:39:08.935Z,35.53
2023-03-12T02:41:40.706Z,37.10
2023-03-12T02:44:12.716Z,36.00
2023-03-12T02:46:43.049Z,35.03
2023-03-12T02:49:12.638Z,36.97
2023-03-12T02:51:40.895Z,35.93
2023-03-12T02:54:08.876Z,36.50
2023-03-12T02:56:36.635Z,36.23
2023-03-12T02:59:04.768Z,35.80
2023-03-12T03:01:34.092Z,33.40
2023-03-12T03:04:02.340Z,33.50
2023-03-12T03:06:30.978Z,34.53
2023-03-12T03:08:59.235Z,34.07
2023-03-12T03:11:27.234Z,34.00
2023-03-12T03:13:56.086Z,33.40
2023-03-12T03:16:24.682Z,33.27
2023-03-12T03:18:53.676Z,34.00
2023-03-12T03:21:22.674Z,31.30
2023-03-12T03:23:51.361Z,31.00
2023-03-12T03:26:21.349Z,31.70
2023-03-12T03:28:49.335Z,31.90
2023-03-12T03:31:17.403Z,30.97
2023-03-12T03:33:45.910Z,30.90
2023-03-12T03:36:15.859Z,31.30
2023-03-12T03:38:49.052Z,29.57
2023-03-12T03:41:17.563Z,30.13
2023-03-12T03:43:45.307Z,29.70
2023-03-12T03:46:14.334Z,30.47
2023-03-12T03:48:42.936Z,32.27
2023-03-12T03:51:12.036Z,30.87
2023-03-12T03:53:41.339Z,31.77
2023-03-12T03:56:10.978Z,31.63
2023-03-12T03:58:38.642Z,31.37
2023-03-12T04:01:07.077Z,32.17
2023-03-12T04:03:35.378Z,31.67
2023-03-12T04:06:05.300Z,31.33
2023-03-12T04:08:35.405Z,31.67
2023-03-12T04:11:09.914Z,31.30
2023-03-12T04:13:37.843Z,31.23
2023-03-12T04:16:06.037Z,31.10
2023-03-12T04:18:33.996Z,28.83
2023-03-12T04:21:01.963Z,30.10
2023-03-12T04:23:29.571Z,29.50
2023-03-12T04:25:57.332Z,29.80
2023-03-12T04:28:26.517Z,29.53
2023-03-12T04:30:59.507Z,29.37
2023-03-12T04:33:27.410Z,30.40
2023-03-12T04:35:55.287Z,27.70
2023-03-12T04:38:24.645Z,29.67
2023-03-12T04:40:59.170Z,28.80
2023-03-12T04:43:28.769Z,28.77
2023-03-12T04:45:56.783Z,28.70
2023-03-12T04:48:25.326Z,29.97
2023-03-12T04:50:53.400Z,29.00
2023-03-12T04:53:21.513Z,29.70
2023-03-12T04:55:49.334Z,30.83
2023-03-12T04:58:17.131Z,30.70
2023-03-12T05:00:47.237Z,31.07
2023-03-12T05:03:15.296Z,30.67
2023-03-12T05:05:43.154Z,30.83
2023-03-12T05:08:10.724Z,31.03
2023-03-12T05:10:38.440Z,30.20
2023-03-12T05:13:06.107Z,32.87
2023-03-12T05:15:33.711Z,30.10
2023-03-12T05:18:02.934Z,31.20
2023-03-12T05:20:31.065Z,31.43
2023-03-12T05:22:58.665Z,30.30
2023-03-12T05:25:26.342Z,30.70
2023-03-12T05:27:55.001Z,30.00
2023-03-12T05:30:22.731Z,29.60
2023-03-12T05:32:50.485Z,30.23
2023-03-12T05:35:19.805Z,30.10
2023-03-12T05:37:47.832Z,34.00
2023-03-12T05:40:15.542Z,36.87
2023-03-12T05:42:43.283Z,46.13
2023-03-12T05:45:11.914Z,46.90
2023-03-12T05:47:39.918Z,47.40
2023-03-12T05:50:09.600Z,42.27
2023-03-12T05:52:38.579Z,31.50
2023-03-12T05:55:07.450Z,30.43
2023-03-12T05:57:35.210Z,29.90
2023-03-12T06:00:03.063Z,29.90
2023-03-12T06:02:30.800Z,30.83
2023-03-12T06:04:59.017Z,31.07
2023-03-12T06:07:26.909Z,31.60
2023-03-12T06:09:56.551Z,31.70
2023-03-12T06:12:24.234Z,29.90
2023-03-12T06:14:51.899Z,31.63
2023-03-12T06:17:19.479Z,30.50
2023-03-12T06:19:47.647Z,30.63
2023-03-12T06:22:15.217Z,32.03
2023-03-12T06:24:47.157Z,31.97
2023-03-12T06:27:17.026Z,34.07
2023-03-12T06:29:46.440Z,35.70
2023-03-12T06:32:14.961Z,34.00
2023-03-12T06:34:42.622Z,36.87
2023-03-12T06:37:10.359Z,35.07
2023-03-12T06:39:38.462Z,35.40
2023-03-12T06:42:06.615Z,34.47
2023-03-12T06:44:35.603Z,36.10
2023-03-12T06:47:03.370Z,37.00
2023-03-12T06:49:33.176Z,36.67
2023-03-12T06:52:00.877Z,38.13
2023-03-12T06:54:28.503Z,37.03
2023-03-12T06:56:56.152Z,38.93
2023-03-12T06:59:23.805Z,38.40
2023-03-12T07:01:53.045Z,39.63
2023-03-12T07:04:20.652Z,41.73
2023-03-12T07:06:50.419Z,44.20
2023-03-12T07:09:18.499Z,41.17
2023-03-12T07:11:46.285Z,40.93
2023-03-12T07:14:13.935Z,44.27
2023-03-12T07:16:41.609Z,43.10
2023-03-12T07:19:10.573Z,43.50
2023-03-12T07:21:38.185Z,45.73
2023-03-12T07:24:08.244Z,43.07
2023-03-12T07:26:36.579Z,45.10
2023-03-12T07:29:05.058Z,47.50
2023-03-12T07:31:32.893Z,46.63
2023-03-12T07:34:02.903Z,47.40
2023-03-12T07:36:32.142Z,48.57
2023-03-12T07:38:59.904Z,49.00
2023-03-12T07:41:27.834Z,53.37
2023-03-12T07:43:55.460Z,53.90
2023-03-12T07:46:23.860Z,50.47
2023-03-12T07:48:51.459Z,54.27
2023-03-12T07:51:19.134Z,54.73
2023-03-12T07:53:48.373Z,53.00
2023-03-12T07:56:16.334Z,53.90
2023-03-12T07:58:44.162Z,54.77
2023-03-12T08:01:11.893Z,55.07
2023-03-12T08:03:39.901Z,55.83
2023-03-12T08:06:08.024Z,55.27
2023-03-12T08:08:38.122Z,57.60
2023-03-12T08:11:07.186Z,53.70
2023-03-12T08:13:35.002Z,59.30
2023-03-12T08:16:02.714Z,56.30
2023-03-12T08:18:30.363Z,56.13
2023-03-12T08:20:57.984Z,57.20
2023-03-12T08:23:26.500Z,56.97
2023-03-12T08:25:55.107Z,56.77
2023-03-12T08:28:24.813Z,61.40
2023-03-12T08:30:54.191Z,56.83
2023-03-12T08:33:22.747Z,56.63
2023-03-12T08:35:50.789Z,56.20
2023-03-12T08:38:18.546Z,54.67
2023-03-12T08:40:46.193Z,52.10
2023-03-12T08:43:13.937Z,52.13
2023-03-12T08:45:43.099Z,52.80
2023-03-12T08:48:10.878Z,51.03
2023-03-12T08:50:38.508Z,50.03
2023-03-12T08:53:06.083Z,48.77
2023-03-12T08:55:33.645Z,49.33
2023-03-12T08:58:01.291Z,48.00
2023-03-12T09:00:29.301Z,48.27
2023-03-12T09:02:58.498Z,47.90
2023-03-12T09:05:28.051Z,49.50
2023-03-12T09:07:55.703Z,49.83
2023-03-12T09:10:23.278Z,49.07
2023-03-12T09:12:51.030Z,50.10
2023-03-12T09:15:18.982Z,50.73
2023-03-12T09:17:48.402Z,52.63
2023-03-12T09:20:17.687Z,50.20
2023-03-12T09:22:45.983Z,51.03
2023-03-12T09:25:14.096Z,53.60
2023-03-12T09:27:43.753Z,51.50
2023-03-12T09:30:14.069Z,60.10
2023-03-12T09:32:41.960Z,61.20
2023-03-12T09:35:10.143Z,55.70
2023-03-12T09:37:39.442Z,51.57
2023-03-12T09:40:09.697Z,54.70
2023-03-12T09:42:42.504Z,51.63
2023-03-12T09:45:17.680Z,52.23
2023-03-12T09:47:50.106Z,52.17
2023-03-12T09:50:26.471Z,51.03
2023-03-12T09:53:00.791Z,49.77
2023-03-12T09:55:32.545Z,48.30
2023-03-12T09:58:00.191Z,49.20
2023-03-12T10:00:32.856Z,47.27
2023-03-12T10:03:11.955Z,49.43
2023-03-12T10:05:46.935Z,46.47
2023-03-12T10:08:28.796Z,45.97
2023-03-12T10:11:09.027Z,47.23
2023-03-12T10:13:51.424Z,46.20
2023-03-12T10:16:33.772Z,45.20
2023-03-12T10:19:14.454Z,44.00
2023-03-12T10:21:52.945Z,43.93
2023-03-12T10:24:42.310Z,42.90
2023-03-12T10:27:13.515Z,42.40
2023-03-12T10:29:45.090Z,40.60
2023-03-12T10:32:18.316Z,40.73
2023-03-12T10:34:50.041Z,40.73
2023-03-12T10:37:23.469Z,40.90
2023-03-12T10:39:54.158Z,40.10
2023-03-12T10:42:25.069Z,41.57
2023-03-12T10:44:54.715Z,41.40
2023-03-12T10:47:32.802Z,39.90
2023-03-12T10:50:15.069Z,38.63
2023-03-12T10:52:43.214Z,39.70
2023-03-12T10:55:22.545Z,36.97
2023-03-12T10:57:50.948Z,38.40
2023-03-12T11:00:23.713Z,38.97
2023-03-12T11:02:59.212Z,36.87
2023-03-12T11:05:29.960Z,36.97
2023-03-12T11:07:59.972Z,35.27
2023-03-12T11:10:40.318Z,36.70
2023-03-12T11:13:23.649Z,35.50
2023-03-12T11:15:52.749Z,36.00
2023-03-12T11:18:25.144Z,33.80
2023-03-12T11:20:56.420Z,33.93
2023-03-12T11:23:27.913Z,35.40
2023-03-12T11:26:01.688Z,35.17
2023-03-12T11:28:38.848Z,36.47
2023-03-12T11:31:12.118Z,34.50
2023-03-12T11:33:39.894Z,36.30
2023-03-12T11:36:19.612Z,34.37
2023-03-12T11:38:54.657Z,34.70
2023-03-12T11:41:37.964Z,34.03
2023-03-12T11:44:20.593Z,34.73
2023-03-12T11:46:57.575Z,36.40
2023-03-12T11:49:47.354Z,33.50
2023-03-12T11:52:28.179Z,32.17
2023-03-12T11:55:19.519Z,33.17
2023-03-12T11:57:58.816Z,32.27
2023-03-12T12:00:32.610Z,32.90
2023-03-12T12:03:31.700Z,32.20
2023-03-12T12:06:04.093Z,32.27
2023-03-12T12:08:49.144Z,30.53
2023-03-12T12:11:24.726Z,30.63
2023-03-12T12:14:06.002Z,28.53
2023-03-12T12:16:47.103Z,28.07
2023-03-12T12:19:25.877Z,26.53
2023-03-12T12:22:06.898Z,24.80
2023-03-12T12:24:55.193Z,25.60
2023-03-12T12:27:26.592Z,23.90
2023-03-12T12:30:11.000Z,22.07
2023-03-12T12:32:55.872Z,23.93
2023-03-12T12:35:32.189Z,23.80
2023-03-12T12:38:04.453Z,23.53
2023-03-12T12:40:37.799Z,24.07
2023-03-12T12:43:20.289Z,25.00
2023-03-12T12:45:52.333Z,24.30
2023-03-12T12:48:24.870Z,25.17
2023-03-12T12:50:54.945Z,23.70
2023-03-12T12:53:26.289Z,23.73
2023-03-12T12:56:08.034Z,23.30
2023-03-12T12:58:52.849Z,22.80
2023-03-12T13:01:22.403Z,23.67
2023-03-12T13:03:51.149Z,20.93
2023-03-12T13:06:18.981Z,20.70
2023-03-12T13:09:15.104Z,22.40
2023-03-12T13:11:47.806Z,22.33
2023-03-12T13:14:41.431Z,19.97
2023-03-12T13:17:22.754Z,22.27
2023-03-12T13:20:00.842Z,21.70
2023-03-12T13:22:40.958Z,20.97
2023-03-12T13:25:23.959Z,19.43
2023-03-12T13:27:59.702Z,19.43
2023-03-12T13:30:47.746Z,20.23
2023-03-12T13:33:18.204Z,18.40
2023-03-12T13:36:04.780Z,18.20
2023-03-12T13:38:38.078Z,19.60
2023-03-12T13:41:07.798Z,19.40
2023-03-12T13:43:56.305Z,19.70
2023-03-12T13:46:47.500Z,19.77
2023-03-12T13:49:19.717Z,22.33
2023-03-12T13:51:56.646Z,21.40
2023-03-12T13:54:28.814Z,23.90
2023-03-12T13:56:59.872Z,23.50
2023-03-12T13:59:29.144Z,25.97
2023-03-12T14:02:01.668Z,22.60
2023-03-12T14:04:38.319Z,21.00
2023-03-12T14:07:33.319Z,21.17
2023-03-12T14:10:12.480Z,28.33
2023-03-12T14:12:48.550Z,29.67
2023-03-12T14:15:25.920Z,23.60
2023-03-12T14:17:58.232Z,22.47
2023-03-12T14:20:28.034Z,22.20
2023-03-12T14:22:58.844Z,22.20
2023-03-12T14:25:35.010Z,22.97
2023-03-12T14:28:03.659Z,22.20
2023-03-12T14:30:40.998Z,24.87
2023-03-12T14:33:11.766Z,27.43
2023-03-12T14:35:45.624Z,25.67
2023-03-12T14:38:17.202Z,26.10
2023-03-12T14:40:49.467Z,25.43
2023-03-12T14:43:22.512Z,26.10
2023-03-12T14:45:51.853Z,26.10
2023-03-12T14:48:22.758Z,25.70
2023-03-12T14:50:51.932Z,25.73
2023-03-12T14:53:26.273Z,25.00
2023-03-12T14:56:01.953Z,26.07
2023-03-12T14:58:29.966Z,27.40
2023-03-12T15:00:59.315Z,26.83
2023-03-12T15:03:28.196Z,26.17
2023-03-12T15:05:57.558Z,27.23
2023-03-12T15:08:26.115Z,29.57
2023-03-12T15:10:56.614Z,29.00
2023-03-12T15:13:26.979Z,29.70
2023-03-12T15:15:55.879Z,31.00
2023-03-12T15:18:26.960Z,29.70
2023-03-12T15:20:57.138Z,27.80
2023-03-12T15:23:29.021Z,30.20
2023-03-12T15:26:26.892Z,30.37
2023-03-12T15:28:58.354Z,31.73
2023-03-12T15:31:26.266Z,43.83
2023-03-12T15:34:02.494Z,31.90
2023-03-12T15:36:32.045Z,30.50
2023-03-12T15:39:05.549Z,31.63
2023-03-12T15:41:43.847Z,32.27
2023-03-12T15:44:20.492Z,35.23
2023-03-12T15:46:49.505Z,29.50
2023-03-12T15:49:27.111Z,28.50
2023-03-12T15:52:06.224Z,29.67
2023-03-12T15:54:40.404Z,29.77
2023-03-12T15:57:23.443Z,27.17
2023-03-12T16:00:09.423Z,27.83
2023-03-12T16:02:38.812Z,30.17
2023-03-12T16:05:08.218Z,29.80
2023-03-12T16:07:35.901Z,28.30
2023-03-12T16:10:05.241Z,29.67
2023-03-12T16:12:32.968Z,28.20
2023-03-12T16:15:00.881Z,31.23
2023-03-12T16:17:28.464Z,30.13
2023-03-12T16:19:56.107Z,27.70
2023-03-12T16:22:23.716Z,28.23
2023-03-12T16:24:51.290Z,28.03
2023-03-12T16:27:31.671Z,30.83
2023-03-12T16:30:00.344Z,32.03
2023-03-12T16:32:28.026Z,32.03
2023-03-12T16:34:55.694Z,28.80
2023-03-12T16:37:23.341Z,30.27
2023-03-12T16:39:51.228Z,33.03
2023-03-12T16:42:21.658Z,30.30
2023-03-12T16:44:49.656Z,31.63
2023-03-12T16:47:17.276Z,31.50
2023-03-12T16:49:45.118Z,31.37
2023-03-12T16:52:18.968Z,30.03
2023-03-12T16:54:46.698Z,32.87
2023-03-12T16:57:24.378Z,31.07
2023-03-12T16:59:52.135Z,33.67
2023-03-12T17:02:21.193Z,34.30
2023-03-12T17:04:50.924Z,32.23
2023-03-12T17:07:18.907Z,34.83
2023-03-12T17:09:46.562Z,34.77
2023-03-12T17:12:21.457Z,35.33
2023-03-12T17:14:51.658Z,32.57
2023-03-12T17:17:19.363Z,36.57
2023-03-12T17:19:47.068Z,34.80
2023-03-12T17:22:14.761Z,35.87
2023-03-12T17:24:42.405Z,35.37
2023-03-12T17:27:10.064Z,34.43
2023-03-12T17:29:37.728Z,34.00
2023-03-12T17:32:07.123Z,34.67
2023-03-12T17:34:34.795Z,34.40
2023-03-12T17:37:02.536Z,34.60
2023-03-12T17:39:30.165Z,35.70
2023-03-12T17:41:58.305Z,37.60
2023-03-12T17:44:29.360Z,35.90
2023-03-12T17:46:59.766Z,36.03
2023-03-12T17:49:29.827Z,36.30
2023-03-12T17:51:57.597Z,36.60
2023-03-12T17:54:25.226Z,37.20
2023-03-12T17:56:52.876Z,37.23
2023-03-12T17:59:20.567Z,38.30
2023-03-12T18:01:48.197Z,39.27
2023-03-12T18:04:15.842Z,39.63
2023-03-12T18:06:44.841Z,39.40
2023-03-12T18:09:12.438Z,39.97
2023-03-12T18:11:40.019Z,40.53
2023-03-12T18:14:07.612Z,42.40
2023-03-12T18:16:35.214Z,40.30
2023-03-12T18:19:02.943Z,39.53
2023-03-12T18:21:30.556Z,41.90
2023-03-12T18:24:11.778Z,40.40
2023-03-12T18:26:41.779Z,42.90
2023-03-12T18:29:09.372Z,42.83
2023-03-12T18:31:37.162Z,43.60
2023-03-12T18:34:05.233Z,43.70
2023-03-12T18:36:32.930Z,45.03
2023-03-12T18:39:04.496Z,45.20
2023-03-12T18:41:32.922Z,47.47
2023-03-12T18:44:00.775Z,45.13
2023-03-12T18:46:28.468Z,46.40
2023-03-12T18:48:56.592Z,48.73
2023-03-12T18:51:24.256Z,49.20
2023-03-12T18:53:51.906Z,50.20
2023-03-12T18:56:20.918Z,50.43
2023-03-12T18:58:48.519Z,53.00
2023-03-12T19:01:16.154Z,54.47
2023-03-12T19:03:43.773Z,54.50
2023-03-12T19:06:14.192Z,58.57
2023-03-12T19:08:43.512Z,59.97
2023-03-12T19:11:13.193Z,60.93
2023-03-12T19:13:42.904Z,61.93
2023-03-12T19:16:16.063Z,64.57
2023-03-12T19:18:43.890Z,65.93
2023-03-12T19:21:11.582Z,66.10
2023-03-12T19:23:39.214Z,69.47
2023-03-12T19:26:07.581Z,69.97
2023-03-12T19:28:35.372Z,65.67
2023-03-12T19:31:07.463Z,73.47
2023-03-12T19:33:35.620Z,71.10
2023-03-12T19:36:03.880Z,75.53
2023-03-12T19:38:31.619Z,76.47
2023-03-12T19:40:59.692Z,79.67
2023-03-12T19:43:27.990Z,76.97
2023-03-12T19:45:56.304Z,79.93
2023-03-12T19:48:26.142Z,88.10
2023-03-12T19:50:56.005Z,86.40
2023-03-12T19:53:24.381Z,90.87
2023-03-12T19:55:52.452Z,87.97
2023-03-12T19:58:20.020Z,85.07
2023-03-12T20:00:49.072Z,86.20
2023-03-12T20:03:16.874Z,88.03
2023-03-12T20:05:46.036Z,85.77
2023-03-12T20:08:14.240Z,88.53
2023-03-12T20:10:41.867Z,94.97
2023-03-12T20:13:12.801Z,100.80
2023-03-12T20:15:40.575Z,103.50
2023-03-12T20:18:08.176Z,103.30
2023-03-12T20:20:36.074Z,107.47
2023-03-12T20:23:05.144Z,111.80
2023-03-12T20:25:32.811Z,112.50
2023-03-12T20:28:00.513Z,113.53
2023-03-12T20:30:28.120Z,113.30
2023-03-12T20:32:55.948Z,115.40
2023-03-12T20:35:23.710Z,108.07
2023-03-12T20:37:51.348Z,111.90
2023-03-12T20:40:20.693Z,113.90
2023-03-12T20:42:48.287Z,115.33
2023-03-12T20:45:16.061Z,117.17
2023-03-12T20:47:43.686Z,117.33
2023-03-12T20:50:12.307Z,120.60
2023-03-12T20:52:40.078Z,124.83
2023-03-12T20:55:08.557Z,130.40
2023-03-12T20:57:37.536Z,123.97
2023-03-12T21:00:06.354Z,128.13
2023-03-12T21:02:34.155Z,128.80
2023-03-12T21:05:02.116Z,123.10
2023-03-12T21:07:30.005Z,125.27
2023-03-12T21:09:57.742Z,127.73
2023-03-12T21:12:25.360Z,126.97
2023-03-12T21:14:54.370Z,127.73
2023-03-12T21:17:22.130Z,127.43
2023-03-12T21:19:49.944Z,123.87
2023-03-12T21:22:17.826Z,127.47
2023-03-12T21:24:45.415Z,128.03
2023-03-12T21:27:13.148Z,136.37
2023-03-12T21:29:40.765Z,136.03
2023-03-12T21:32:09.803Z,129.43
2023-03-12T21:34:38.260Z,131.27
2023-03-12T21:37:05.903Z,131.87
2023-03-12T21:39:33.681Z,123.03
2023-03-12T21:42:01.299Z,125.30
2023-03-12T21:44:29.030Z,135.70
2023-03-12T21:46:56.619Z,130.53
2023-03-12T21:49:25.864Z,123.20
2023-03-12T21:51:53.471Z,122.57
2023-03-12T21:54:21.098Z,127.03
2023-03-12T21:56:48.699Z,130.00
2023-03-12T21:59:16.341Z,126.33
2023-03-12T22:01:44.461Z,121.53
2023-03-12T22:04:12.088Z,122.00
2023-03-12T22:06:42.345Z,127.40
2023-03-12T22:09:09.981Z,122.87
2023-03-12T22:11:37.604Z,124.53
2023-03-12T22:14:05.427Z,133.30
2023-03-12T22:16:33.098Z,129.00
2023-03-12T22:19:01.214Z,129.67
2023-03-12T22:21:28.927Z,132.10
2023-03-12T22:23:58.213Z,125.33
2023-03-12T22:26:26.983Z,126.07
2023-03-12T22:28:56.881Z,126.97
2023-03-12T22:31:26.688Z,123.73
2023-03-12T22:33:54.559Z,129.80
2023-03-12T22:36:23.154Z,131.50
2023-03-12T22:38:50.967Z,127.73
2023-03-12T22:41:22.053Z,125.70
2023-03-12T22:43:51.574Z,124.10
2023-03-12T22:46:21.407Z,120.97
2023-03-12T22:48:53.298Z,123.10
2023-03-12T22:51:21.025Z,128.80
2023-03-12T22:53:48.656Z,125.07
2023-03-12T22:56:16.540Z,122.63
2023-03-12T22:58:45.871Z,125.90
2023-03-12T23:01:15.525Z,129.70
2023-03-12T23:03:44.737Z,127.90
2023-03-12T23:06:14.529Z,134.50
2023-03-12T23:08:42.551Z,129.93
2023-03-12T23:11:12.258Z,131.83
2023-03-12T23:13:42.540Z,122.57
2023-03-12T23:16:13.998Z,121.43
2023-03-12T23:18:42.874Z,123.50
2023-03-12T23:21:12.098Z,118.53
2023-03-12T23:23:41.835Z,121.80
2023-03-12T23:26:12.000Z,123.70
2023-03-12T23:28:39.689Z,119.90
2023-03-12T23:31:09.544Z,118.50
2023-03-12T23:33:39.106Z,125.63
2023-03-12T23:36:09.774Z,122.70
2023-03-12T23:38:37.948Z,117.30
2023-03-12T23:41:07.273Z,120.07
2023-03-12T23:43:35.456Z,117.80
2023-03-12T23:46:05.623Z,123.77
2023-03-12T23:48:34.687Z,122.37
2023-03-12T23:51:08.820Z,121.77
2023-03-12T23:53:37.572Z,127.93
2023-03-12T23:56:07.984Z,127.10
2023-03-12T23:58:36.943Z,124.27
